Time;durP1;ratioP1;P1;durP2;ratioP2;P2;SDS_P1;SDS_P2;PMS_P1;PMS_P2;Temp;Humidity;BMP_temperature;BMP_pressure;BME280_temperature;BME280_humidity;BME280_pressure;Samples;Min_cycle;Max_cycle;Signal;HPM_P1;HPM_P2
2023/03/09 00:00:35;;;;;;;22.48;10.40;;;;;;;1.78;100.00;99216.38;4886938;29;20052;-87
2023/03/09 00:03:01;;;;;;;22.80;10.70;;;;;;;1.91;100.00;99206.00;4897890;29;20025;-87
2023/03/09 00:05:27;;;;;;;19.13;9.35;;;;;;;1.96;100.00;99222.25;4888351;29;20029;-87
2023/03/09 00:07:54;;;;;;;22.73;10.48;;;;;;;1.94;100.00;99219.88;4894390;29;20033;-87
2023/03/09 00:10:20;;;;;;;21.20;10.70;;;;;;;2.05;100.00;99219.31;4879949;29;20028;-87
2023/03/09 00:12:45;;;;;;;25.95;12.45;;;;;;;2.08;100.00;99224.91;4886011;29;20049;-87
2023/03/09 00:15:11;;;;;;;22.85;9.70;;;;;;;1.81;100.00;99216.44;4879230;29;20115;-87
2023/03/09 00:17:36;;;;;;;20.48;10.27;;;;;;;1.76;100.00;99213.16;4873955;29;20112;-87
2023/03/09 00:20:16;;;;;;;18.00;9.65;;;;;;;1.68;100.00;99209.44;4891611;29;20479;-87
2023/03/09 00:22:42;;;;;;;18.33;9.15;;;;;;;1.74;100.00;99199.72;4896864;29;20421;-87
2023/03/09 00:25:13;;;;;;;21.33;10.00;;;;;;;1.69;100.00;99208.28;4879478;29;20477;-88
2023/03/09 00:27:39;;;;;;;18.90;8.90;;;;;;;1.76;100.00;99218.69;4892848;29;20025;-87
2023/03/09 00:30:05;;;;;;;18.77;8.68;;;;;;;1.74;100.00;99216.28;4897307;29;20169;-87
2023/03/09 00:32:30;;;;;;;18.45;10.07;;;;;;;1.66;100.00;99209.00;4880703;29;20123;-87
2023/03/09 00:34:56;;;;;;;18.77;9.27;;;;;;;1.80;100.00;99225.09;4879394;29;20029;-87
2023/03/09 00:37:22;;;;;;;23.40;9.63;;;;;;;1.74;100.00;99205.25;4892148;29;20040;-87
2023/03/09 00:39:47;;;;;;;15.52;7.78;;;;;;;1.77;100.00;99207.28;4880826;29;20036;-87
2023/03/09 00:42:13;;;;;;;18.27;8.80;;;;;;;1.49;100.00;99195.59;4876695;29;20031;-87
2023/03/09 00:44:39;;;;;;;19.70;8.68;;;;;;;1.58;100.00;99196.19;4880684;29;20039;-87
2023/03/09 00:47:05;;;;;;;17.98;8.52;;;;;;;1.62;100.00;99197.06;4876783;29;20032;-88
2023/03/09 00:49:30;;;;;;;17.70;9.07;;;;;;;1.60;100.00;99211.25;4881078;29;20028;-87
2023/03/09 00:51:56;;;;;;;14.52;7.32;;;;;;;1.63;100.00;99202.25;4879109;29;20043;-87
2023/03/09 00:54:22;;;;;;;18.50;8.70;;;;;;;1.75;100.00;99201.34;4891957;29;20484;-89
2023/03/09 00:56:47;;;;;;;20.38;10.00;;;;;;;1.55;100.00;99202.44;4876544;29;20033;-87
2023/03/09 00:59:13;;;;;;;18.52;8.65;;;;;;;1.59;100.00;99214.34;4877391;29;20112;-88
2023/03/09 01:01:38;;;;;;;19.00;9.25;;;;;;;1.73;100.00;99197.31;4891575;29;20052;-87
2023/03/09 01:04:04;;;;;;;23.77;9.45;;;;;;;1.71;100.00;99202.38;4874518;29;20036;-87
2023/03/09 01:06:30;;;;;;;18.40;9.63;;;;;;;1.76;100.00;99211.19;4876864;29;20056;-87
2023/03/09 01:08:56;;;;;;;24.17;10.20;;;;;;;1.86;100.00;99231.13;4886329;29;20116;-87
2023/03/09 01:11:22;;;;;;;22.08;9.20;;;;;;;1.48;100.00;99216.06;4877298;29;20137;-87
2023/03/09 01:13:47;;;;;;;24.02;9.82;;;;;;;1.89;100.00;99236.72;4890111;29;20164;-87
2023/03/09 01:16:13;;;;;;;19.55;9.27;;;;;;;1.74;100.00;99227.31;4890112;29;20040;-87
2023/03/09 01:18:39;;;;;;;20.27;9.65;;;;;;;1.71;100.00;99219.75;4882954;29;20032;-87
2023/03/09 01:21:05;;;;;;;23.08;10.30;;;;;;;1.50;100.00;99222.81;4869875;29;20037;-87
2023/03/09 01:23:31;;;;;;;21.17;11.13;;;;;;;1.77;100.00;99214.75;4890182;29;20151;-87
2023/03/09 01:25:56;;;;;;;24.25;10.75;;;;;;;1.68;100.00;99214.16;4892288;29;20044;-87
2023/03/09 01:28:22;;;;;;;21.95;9.30;;;;;;;1.91;100.00;99206.78;4893411;29;20020;-87
2023/03/09 01:30:47;;;;;;;24.13;10.93;;;;;;;1.58;100.00;99212.72;4893634;29;20366;-87
2023/03/09 01:33:13;;;;;;;23.60;10.45;;;;;;;1.63;100.00;99193.19;4877954;29;20032;-87
2023/03/09 01:35:39;;;;;;;21.65;8.82;;;;;;;1.66;100.00;99210.97;4890439;29;20047;-87
2023/03/09 01:38:05;;;;;;;23.92;11.32;;;;;;;1.69;100.00;99213.81;4897241;29;20028;-88
2023/03/09 01:40:31;;;;;;;21.40;10.05;;;;;;;1.81;100.00;99221.16;4869745;29;20418;-87
2023/03/09 01:43:01;;;;;;;22.83;11.32;;;;;;;1.95;100.00;99231.72;4894647;29;20050;-87
2023/03/09 01:45:27;;;;;;;26.55;11.60;;;;;;;1.88;100.00;99250.84;4887925;29;20477;-87
2023/03/09 01:47:56;;;;;;;20.58;10.52;;;;;;;1.78;100.00;99244.75;4874541;29;20024;-87
2023/03/09 01:50:34;;;;;;;24.17;11.35;;;;;;;1.67;100.00;99249.22;4894234;29;20066;-87
2023/03/09 01:53:10;;;;;;;22.92;10.48;;;;;;;1.68;100.00;99256.31;4870678;29;20032;-87
2023/03/09 01:55:44;;;;;;;22.20;11.23;;;;;;;1.74;100.00;99260.41;4875403;29;20622;-87
2023/03/09 01:58:16;;;;;;;23.65;10.55;;;;;;;1.77;100.00;99259.72;4881894;29;20084;-88
2023/03/09 02:00:47;;;;;;;26.73;10.93;;;;;;;1.26;100.00;99251.34;4892824;29;20060;-87
2023/03/09 02:03:18;;;;;;;27.88;13.05;;;;;;;1.51;100.00;99248.44;4882002;29;20577;-88
2023/03/09 02:06:03;;;;;;;27.13;11.80;;;;;;;1.60;100.00;99266.41;4871995;29;20033;-87
2023/03/09 02:08:31;;;;;;;28.92;13.27;;;;;;;1.75;100.00;99259.28;4876660;29;20481;-87
2023/03/09 02:11:03;;;;;;;26.90;13.13;;;;;;;1.63;100.00;99253.84;4876632;29;20055;-87
2023/03/09 02:13:32;;;;;;;30.60;11.80;;;;;;;1.65;100.00;99265.31;4872605;29;20039;-87
2023/03/09 02:15:58;;;;;;;30.33;13.43;;;;;;;1.80;100.00;99266.47;4867370;29;20048;-87
2023/03/09 02:18:24;;;;;;;27.80;12.23;;;;;;;1.91;100.00;99269.47;4884850;29;20033;-87
2023/03/09 02:21:08;;;;;;;30.10;13.30;;;;;;;1.82;100.00;99272.41;4882850;29;20367;-88
2023/03/09 02:23:52;;;;;;;27.88;12.38;;;;;;;1.93;100.00;99280.94;4865937;29;20041;-87
2023/03/09 02:26:44;;;;;;;30.73;13.02;;;;;;;1.81;100.00;99282.66;4886208;29;20498;-87
2023/03/09 02:29:11;;;;;;;30.48;13.43;;;;;;;1.83;100.00;99285.03;4885806;29;20028;-87
2023/03/09 02:31:39;;;;;;;29.50;12.32;;;;;;;1.86;100.00;99287.09;4869772;29;20040;-88
2023/03/09 02:34:05;;;;;;;24.70;11.75;;;;;;;1.55;100.00;99296.19;4872437;29;20493;-87
2023/03/09 02:36:31;;;;;;;27.77;11.32;;;;;;;1.78;100.00;99282.56;4869072;29;20025;-87
2023/03/09 02:39:04;;;;;;;30.45;11.50;;;;;;;1.87;100.00;99290.66;4872115;29;20073;-87
2023/03/09 02:41:30;;;;;;;30.25;11.43;;;;;;;1.83;100.00;99291.38;4866005;29;20454;-87
2023/03/09 02:43:57;;;;;;;25.70;12.65;;;;;;;1.79;100.00;99306.22;4869589;29;20040;-88
2023/03/09 02:46:23;;;;;;;28.50;11.77;;;;;;;1.90;100.00;99296.25;4875149;29;20063;-87
2023/03/09 02:48:49;;;;;;;27.33;13.23;;;;;;;1.98;100.00;99308.25;4868408;29;20059;-87
2023/03/09 02:51:14;;;;;;;25.98;13.10;;;;;;;1.96;100.00;99305.06;4874975;29;20068;-87
2023/03/09 02:53:40;;;;;;;27.10;12.52;;;;;;;1.44;100.00;99284.09;4883554;29;20059;-87
2023/03/09 02:56:06;;;;;;;27.20;11.95;;;;;;;1.64;100.00;99294.03;4882036;29;20398;-88
2023/03/09 02:58:32;;;;;;;27.13;12.00;;;;;;;1.63;100.00;99297.97;4866291;29;20126;-87
2023/03/09 03:00:58;;;;;;;30.65;12.55;;;;;;;1.88;100.00;99303.28;4865899;29;20500;-87
2023/03/09 03:03:24;;;;;;;29.83;12.45;;;;;;;1.62;100.00;99291.66;4869546;29;20040;-87
2023/03/09 03:05:49;;;;;;;34.22;14.65;;;;;;;1.55;100.00;99297.00;4872834;29;20037;-87
2023/03/09 03:08:15;;;;;;;33.00;14.57;;;;;;;1.42;100.00;99282.50;4869210;29;20044;-87
2023/03/09 03:10:41;;;;;;;30.63;14.15;;;;;;;1.57;100.00;99291.91;4877349;29;20148;-88
2023/03/09 03:13:06;;;;;;;29.23;12.18;;;;;;;1.79;100.00;99292.44;4870146;29;20490;-88
2023/03/09 03:15:32;;;;;;;31.08;11.75;;;;;;;1.72;100.00;99301.34;4870921;29;20035;-87
2023/03/09 03:17:58;;;;;;;31.38;12.85;;;;;;;1.58;100.00;99314.78;4872492;29;20037;-87
2023/03/09 03:20:24;;;;;;;26.55;12.00;;;;;;;1.56;100.00;99319.84;4876553;29;20107;-87
2023/03/09 03:22:50;;;;;;;32.05;12.48;;;;;;;1.59;100.00;99319.94;4879364;29;20499;-87
2023/03/09 03:25:16;;;;;;;28.80;14.25;;;;;;;1.64;100.00;99329.91;4891443;29;20068;-87
2023/03/09 03:27:42;;;;;;;32.00;12.10;;;;;;;1.68;100.00;99324.47;4895315;29;20052;-87
2023/03/09 03:30:08;;;;;;;29.67;13.82;;;;;;;1.77;100.00;99342.47;4889429;29;20029;-87
2023/03/09 03:32:34;;;;;;;28.20;13.25;;;;;;;1.60;100.00;99349.13;4877354;29;20504;-87
2023/03/09 03:34:59;;;;;;;37.85;15.60;;;;;;;1.80;100.00;99368.53;4894664;29;20032;-87
2023/03/09 03:37:25;;;;;;;30.70;12.90;;;;;;;1.82;100.00;99372.53;4888944;29;20056;-87
2023/03/09 03:39:50;;;;;;;31.63;14.10;;;;;;;1.90;100.00;99375.47;4890856;29;20032;-87
2023/03/09 03:42:15;;;;;;;27.40;13.35;;;;;;;1.83;100.00;99376.91;4874175;29;20063;-87
2023/03/09 03:44:41;;;;;;;34.10;12.93;;;;;;;1.93;100.00;99375.56;4897244;29;20037;-87
2023/03/09 03:47:06;;;;;;;29.98;12.00;;;;;;;1.87;100.00;99367.91;4897036;29;20095;-87
2023/03/09 03:49:32;;;;;;;28.88;12.05;;;;;;;1.87;100.00;99376.97;4881184;29;20037;-87
2023/03/09 03:51:57;;;;;;;26.88;11.73;;;;;;;1.83;100.00;99374.16;4883923;29;20027;-88
2023/03/09 03:54:23;;;;;;;30.23;12.18;;;;;;;1.78;100.00;99384.66;4897347;29;20116;-87
2023/03/09 03:56:48;;;;;;;28.85;11.85;;;;;;;1.75;100.00;99361.34;4880255;29;20033;-87
2023/03/09 03:59:14;;;;;;;27.20;11.45;;;;;;;1.87;100.00;99381.72;4877696;29;20545;-87
2023/03/09 04:01:39;;;;;;;29.38;14.23;;;;;;;1.81;100.00;99373.72;4893187;29;20048;-87
2023/03/09 04:04:05;;;;;;;27.17;12.27;;;;;;;1.82;100.00;99375.28;4891363;29;20043;-87
2023/03/09 04:06:32;;;;;;;23.05;10.82;;;;;;;1.92;100.00;99368.44;4885145;29;20029;-87
2023/03/09 04:08:58;;;;;;;21.77;11.55;;;;;;;1.85;100.00;99378.50;4888671;29;20123;-87
2023/03/09 04:11:23;;;;;;;26.30;10.48;;;;;;;1.75;100.00;99374.31;4895474;29;20040;-87
2023/03/09 04:13:50;;;;;;;30.05;12.43;;;;;;;1.65;100.00;99375.66;4894957;29;20055;-87
2023/03/09 04:16:15;;;;;;;24.95;11.55;;;;;;;1.63;100.00;99383.47;4880458;29;20079;-87
2023/03/09 04:18:41;;;;;;;30.15;11.13;;;;;;;1.70;100.00;99374.59;4875224;29;20419;-87
2023/03/09 04:21:06;;;;;;;26.15;10.85;;;;;;;1.76;100.00;99390.50;4891879;29;22198;-87
2023/03/09 04:23:32;;;;;;;28.75;11.60;;;;;;;1.87;100.00;99407.34;4889136;29;20052;-87
2023/03/09 04:26:00;;;;;;;27.73;13.23;;;;;;;1.73;100.00;99410.53;4880000;29;20035;-87
2023/03/09 04:28:26;;;;;;;28.00;11.48;;;;;;;1.90;100.00;99409.41;4890762;29;20521;-88
2023/03/09 04:30:52;;;;;;;26.27;11.80;;;;;;;1.75;100.00;99394.44;4873211;29;20035;-87
2023/03/09 04:33:17;;;;;;;30.67;12.30;;;;;;;1.77;100.00;99419.72;4879294;29;20401;-86
2023/03/09 04:35:43;;;;;;;29.38;11.88;;;;;;;1.83;100.00;99418.28;4891578;29;20035;-87
2023/03/09 04:38:09;;;;;;;28.52;11.65;;;;;;;1.87;100.00;99417.56;4890131;29;20064;-87
2023/03/09 04:40:35;;;;;;;24.75;10.68;;;;;;;1.98;100.00;99418.63;4892237;29;20045;-87
2023/03/09 04:43:01;;;;;;;30.88;13.45;;;;;;;1.80;100.00;99419.00;4891556;29;20032;-87
2023/03/09 04:45:27;;;;;;;22.23;10.45;;;;;;;1.69;100.00;99434.47;4874788;29;20626;-87
2023/03/09 04:47:52;;;;;;;24.98;11.18;;;;;;;1.70;100.00;99415.97;4868031;29;20029;-87
2023/03/09 04:50:18;;;;;;;32.25;12.05;;;;;;;1.60;100.00;99411.75;4873201;29;20036;-87
2023/03/09 04:52:44;;;;;;;27.05;12.48;;;;;;;1.78;100.00;99418.53;4871899;29;20064;-87
2023/03/09 04:55:09;;;;;;;26.60;12.82;;;;;;;1.49;100.00;99416.19;4889427;29;20033;-87
2023/03/09 04:57:35;;;;;;;31.30;11.68;;;;;;;1.53;100.00;99415.13;4875071;29;20037;-87
2023/03/09 05:00:00;;;;;;;27.02;12.52;;;;;;;1.51;100.00;99430.44;4877361;29;20100;-87
2023/03/09 05:02:28;;;;;;;29.55;12.30;;;;;;;1.69;100.00;99433.69;4889928;29;20033;-87
2023/03/09 05:04:54;;;;;;;30.85;12.75;;;;;;;1.88;100.00;99446.75;4877636;29;20481;-87
2023/03/09 05:07:19;;;;;;;26.40;12.15;;;;;;;1.78;100.00;99443.38;4876516;29;20029;-87
2023/03/09 05:09:45;;;;;;;27.77;11.55;;;;;;;1.75;100.00;99444.09;4877923;29;20184;-87
2023/03/09 05:12:10;;;;;;;28.75;12.73;;;;;;;1.86;100.00;99460.13;4873182;29;20079;-87
2023/03/09 05:14:36;;;;;;;24.02;11.65;;;;;;;1.65;100.00;99443.81;4874057;29;20171;-87
2023/03/09 05:17:01;;;;;;;30.52;13.50;;;;;;;1.56;100.00;99446.69;4874247;29;20028;-87
2023/03/09 05:19:27;;;;;;;26.83;12.35;;;;;;;1.75;100.00;99444.09;4873272;29;20029;-87
2023/03/09 05:21:52;;;;;;;27.73;14.30;;;;;;;1.72;100.00;99427.44;4888273;29;20557;-87
2023/03/09 05:24:18;;;;;;;27.02;12.32;;;;;;;1.67;100.00;99434.03;4878186;29;20123;-87
2023/03/09 05:26:43;;;;;;;26.80;11.75;;;;;;;1.71;100.00;99443.19;4870529;29;20393;-87
2023/03/09 05:29:09;;;;;;;29.27;12.52;;;;;;;1.67;100.00;99436.78;4871993;29;20052;-87
2023/03/09 05:31:34;;;;;;;29.10;13.02;;;;;;;1.73;100.00;99456.63;4888507;29;20024;-87
2023/03/09 05:34:00;;;;;;;28.70;12.23;;;;;;;1.79;100.00;99464.31;4884995;29;20032;-87
2023/03/09 05:36:26;;;;;;;29.42;14.02;;;;;;;1.75;100.00;99471.69;4876231;29;20040;-87
2023/03/09 05:38:52;;;;;;;33.88;12.70;;;;;;;1.95;100.00;99486.38;4874626;29;20600;-87
2023/03/09 05:41:19;;;;;;;31.38;12.90;;;;;;;1.95;100.00;99480.06;4874643;29;20497;-87
2023/03/09 05:43:44;;;;;;;27.70;12.30;;;;;;;1.95;100.00;99502.16;4875853;29;20785;-87
2023/03/09 05:46:12;;;;;;;31.88;14.70;;;;;;;1.86;100.00;99499.56;4871726;29;21317;-87
2023/03/09 05:48:39;;;;;;;32.40;13.40;;;;;;;1.91;100.00;99506.78;4872619;29;20063;-87
2023/03/09 05:51:05;;;;;;;36.75;15.82;;;;;;;1.95;100.00;99497.44;4870805;29;20052;-86
2023/03/09 05:53:31;;;;;;;33.65;14.48;;;;;;;1.88;100.00;99502.75;4873112;29;20036;-86
2023/03/09 05:55:58;;;;;;;28.58;12.80;;;;;;;1.89;100.00;99503.56;4865696;29;20033;-85
2023/03/09 05:58:23;;;;;;;29.40;13.25;;;;;;;1.88;100.00;99496.41;4868523;29;20043;-86
2023/03/09 06:00:49;;;;;;;28.77;11.80;;;;;;;2.00;100.00;99499.13;4869323;29;20052;-86
2023/03/09 06:03:15;;;;;;;27.15;12.98;;;;;;;1.83;100.00;99492.78;4866138;29;20279;-87
2023/03/09 06:05:40;;;;;;;35.33;14.65;;;;;;;2.02;100.00;99496.81;4874829;29;20025;-86
2023/03/09 06:08:06;;;;;;;34.55;15.93;;;;;;;1.95;100.00;99496.63;4881792;29;20021;-86
2023/03/09 06:10:31;;;;;;;29.05;12.20;;;;;;;1.94;100.00;99506.03;4875311;29;20051;-86
2023/03/09 06:12:57;;;;;;;27.50;13.45;;;;;;;1.71;100.00;99514.91;4878137;29;20044;-86
2023/03/09 06:15:22;;;;;;;26.70;12.75;;;;;;;1.85;100.00;99506.22;4890947;29;20039;-86
2023/03/09 06:17:48;;;;;;;29.55;13.90;;;;;;;2.04;100.00;99524.84;4874959;29;20036;-86
2023/03/09 06:20:14;;;;;;;33.15;14.32;;;;;;;1.97;100.00;99532.97;4878849;29;22369;-86
2023/03/09 06:22:40;;;;;;;32.78;14.85;;;;;;;1.95;100.00;99532.50;4882980;29;20039;-86
2023/03/09 06:25:07;;;;;;;29.80;13.05;;;;;;;1.97;100.00;99536.50;4868475;29;20518;-86
2023/03/09 06:27:36;;;;;;;33.00;14.88;;;;;;;1.88;100.00;99546.09;4888042;29;20374;-86
2023/03/09 06:30:02;;;;;;;36.03;13.32;;;;;;;2.09;100.00;99563.25;4869555;29;20029;-86
2023/03/09 06:32:31;;;;;;;31.23;14.68;;;;;;;2.01;100.00;99553.19;4868439;29;20033;-86
2023/03/09 06:34:57;;;;;;;32.38;15.20;;;;;;;1.98;100.00;99545.59;4870035;29;20389;-88
2023/03/09 06:37:22;;;;;;;36.20;14.75;;;;;;;1.81;100.00;99552.22;4886177;29;20056;-86
2023/03/09 06:39:48;;;;;;;29.95;13.07;;;;;;;1.78;100.00;99545.44;4875246;29;20049;-86
2023/03/09 06:42:13;;;;;;;33.63;16.15;;;;;;;1.78;100.00;99552.94;4868717;29;20126;-86
2023/03/09 06:44:39;;;;;;;40.58;16.40;;;;;;;1.83;100.00;99547.97;4871034;29;20075;-86
2023/03/09 06:47:04;;;;;;;34.00;14.15;;;;;;;1.99;100.00;99541.69;4885496;29;20496;-86
2023/03/09 06:49:30;;;;;;;35.92;14.82;;;;;;;1.82;100.00;99535.31;4872958;29;20381;-87
2023/03/09 06:51:57;;;;;;;39.25;14.75;;;;;;;1.68;100.00;99547.91;4871002;29;20482;-86
2023/03/09 06:54:23;;;;;;;37.42;15.13;;;;;;;1.77;100.00;99537.53;4876575;29;20043;-86
2023/03/09 06:56:48;;;;;;;37.05;15.55;;;;;;;1.71;100.00;99541.69;4889224;29;20029;-86
2023/03/09 06:59:14;;;;;;;39.00;17.02;;;;;;;1.74;100.00;99550.06;4882364;29;20545;-88
2023/03/09 07:01:40;;;;;;;37.05;16.25;;;;;;;1.67;100.00;99544.34;4879154;29;20045;-87
2023/03/09 07:04:07;;;;;;;38.97;16.60;;;;;;;1.66;100.00;99562.03;4869631;29;20378;-86
2023/03/09 07:10:13;;;;;;;34.35;14.57;;;;;;;3.58;100.00;99585.78;4765688;29;20039;-92
2023/03/09 07:12:38;;;;;;;38.97;17.08;;;;;;;4.91;100.00;99599.38;4769951;29;20374;-88
2023/03/09 07:15:05;;;;;;;35.83;14.73;;;;;;;3.08;100.00;99604.00;4853229;29;20076;-87
2023/03/09 07:17:31;;;;;;;40.28;16.00;;;;;;;2.34;100.00;99602.59;4887802;29;20502;-88
2023/03/09 07:19:59;;;;;;;42.55;15.70;;;;;;;2.22;100.00;99606.19;4895113;29;20028;-87
2023/03/09 07:22:24;;;;;;;35.70;15.77;;;;;;;2.34;100.00;99613.63;4878777;29;20112;-87
2023/03/09 07:24:50;;;;;;;36.90;15.35;;;;;;;2.21;100.00;99626.69;4888935;29;20112;-87
2023/03/09 07:27:18;;;;;;;37.50;15.43;;;;;;;2.37;100.00;99631.44;4872736;29;20032;-88
2023/03/09 07:29:44;;;;;;;34.15;14.65;;;;;;;2.28;100.00;99636.31;4884439;29;20047;-87
2023/03/09 07:32:10;;;;;;;36.92;15.73;;;;;;;2.35;100.00;99642.84;4889262;29;20470;-88
2023/03/09 07:34:35;;;;;;;30.92;13.50;;;;;;;2.36;100.00;99651.91;4897355;29;20052;-88
2023/03/09 07:37:00;;;;;;;33.95;15.57;;;;;;;2.51;100.00;99651.16;4879124;29;20055;-89
2023/03/09 07:39:26;;;;;;;36.42;16.35;;;;;;;2.45;100.00;99638.78;4877854;29;20088;-93
2023/03/09 07:41:52;;;;;;;34.42;15.98;;;;;;;2.41;100.00;99641.44;4895667;29;20135;-91
2023/03/09 07:44:17;;;;;;;35.95;15.65;;;;;;;2.35;100.00;99653.09;4882953;29;20028;-91
2023/03/09 07:46:43;;;;;;;33.42;15.00;;;;;;;2.15;100.00;99655.72;4882624;29;20033;-91
2023/03/09 07:49:08;;;;;;;34.60;16.02;;;;;;;1.89;100.00;99658.88;4895511;29;20111;-90
2023/03/09 07:51:35;;;;;;;37.47;15.50;;;;;;;2.22;100.00;99649.59;4894842;29;20036;-90
2023/03/09 07:54:01;;;;;;;42.05;16.00;;;;;;;2.32;100.00;99667.59;4897444;29;20492;-93
2023/03/09 07:56:27;;;;;;;35.92;15.18;;;;;;;2.33;100.00;99664.47;4878304;29;20032;-90
2023/03/09 07:58:53;;;;;;;37.42;15.70;;;;;;;2.44;100.00;99675.81;4895981;29;20036;-94
2023/03/09 08:01:19;;;;;;;36.67;15.70;;;;;;;2.32;100.00;99684.97;4881669;29;20078;-91
2023/03/09 08:03:46;;;;;;;32.35;14.05;;;;;;;2.16;100.00;99687.66;4875856;29;20111;-92
2023/03/09 08:06:12;;;;;;;35.50;15.75;;;;;;;2.32;100.00;99675.88;4894381;29;20491;-90
2023/03/09 08:08:38;;;;;;;34.75;15.88;;;;;;;2.28;100.00;99686.00;4874181;29;20033;-92
2023/03/09 08:11:04;;;;;;;39.47;16.48;;;;;;;2.42;100.00;99686.41;4883729;29;20474;-91
2023/03/09 08:13:30;;;;;;;39.40;16.05;;;;;;;2.51;100.00;99691.78;4891225;29;20055;-92
2023/03/09 08:16:00;;;;;;;38.47;16.20;;;;;;;2.41;100.00;99682.84;4892605;29;20048;-92
2023/03/09 08:18:26;;;;;;;34.88;17.45;;;;;;;2.18;100.00;99677.06;4880053;29;20049;-92
2023/03/09 08:20:51;;;;;;;40.65;16.13;;;;;;;1.88;100.00;99668.31;4878096;29;20047;-90
2023/03/09 08:23:17;;;;;;;37.70;16.95;;;;;;;2.01;100.00;99677.38;4877444;29;20100;-92
2023/03/09 08:25:43;;;;;;;38.20;15.55;;;;;;;1.89;100.00;99680.97;4893258;29;20032;-92
2023/03/09 08:28:10;;;;;;;36.03;17.33;;;;;;;1.61;100.00;99672.63;4880321;29;20499;-92
2023/03/09 08:30:51;;;;;;;41.88;17.42;;;;;;;1.80;100.00;99677.53;4893570;29;20065;-93
2023/03/09 08:36:20;;;;;;;37.15;16.40;;;;;;;2.17;100.00;99696.75;4900123;29;20527;-92
2023/03/09 08:42:39;;;;;;;38.63;16.63;;;;;;;2.00;100.00;99703.34;4902956;29;20060;-93
2023/03/09 08:48:52;;;;;;;37.22;15.65;;;;;;;2.14;100.00;99719.53;4890723;29;20040;-92
2023/03/09 08:51:43;;;;;;;41.50;16.38;;;;;;;2.26;100.00;99726.97;4900877;29;20114;-90
2023/03/09 08:54:09;;;;;;;39.17;16.00;;;;;;;1.95;100.00;99733.97;4877134;29;20037;-93
2023/03/09 08:59:52;;;;;;;40.58;15.82;;;;;;;1.63;100.00;99722.75;4863542;29;20183;-92
2023/03/09 09:02:29;;;;;;;40.40;16.17;;;;;;;1.78;100.00;99712.94;4898756;29;20107;-92
2023/03/09 09:05:55;;;;;;;40.97;17.95;;;;;;;1.63;100.00;99719.97;4879482;29;20044;-91
2023/03/09 09:09:11;;;;;;;37.13;15.57;;;;;;;2.02;100.00;99745.22;4892983;29;20109;-93
2023/03/09 09:11:36;;;;;;;46.40;20.52;;;;;;;2.32;100.00;99744.91;4882584;29;20040;-90
2023/03/09 09:14:02;;;;;;;44.50;17.85;;;;;;;2.01;100.00;99754.66;4890947;29;20088;-91
2023/03/09 09:16:33;;;;;;;41.10;16.58;;;;;;;2.13;100.00;99757.41;4882197;29;20080;-90
2023/03/09 09:19:02;;;;;;;44.95;17.52;;;;;;;2.41;100.00;99757.41;4895381;29;20725;-91
2023/03/09 09:21:28;;;;;;;40.47;17.25;;;;;;;2.45;100.00;99768.59;4898095;29;20041;-90
2023/03/09 09:23:58;;;;;;;42.05;16.52;;;;;;;2.15;100.00;99782.69;4893721;29;20033;-91
2023/03/09 09:26:23;;;;;;;41.60;16.85;;;;;;;2.44;100.00;99778.00;4892026;29;20032;-91
2023/03/09 09:28:50;;;;;;;44.85;17.40;;;;;;;2.16;100.00;99784.28;4891872;29;20025;-92
2023/03/09 09:31:20;;;;;;;41.03;16.92;;;;;;;1.96;100.00;99790.75;4879964;29;20036;-90
2023/03/09 09:33:45;;;;;;;53.00;19.30;;;;;;;1.95;100.00;99797.44;4889643;29;20139;-90
2023/03/09 09:36:14;;;;;;;39.08;16.23;;;;;;;1.93;100.00;99794.22;4878098;29;20092;-91
2023/03/09 09:38:41;;;;;;;42.05;19.40;;;;;;;2.16;100.00;99800.84;4881268;29;20056;-91
2023/03/09 09:41:25;;;;;;;41.72;17.48;;;;;;;2.20;100.00;99793.50;4882587;29;20036;-91
2023/03/09 09:43:56;;;;;;;47.75;18.85;;;;;;;2.28;100.00;99779.88;4874922;29;20059;-90
2023/03/09 09:46:32;;;;;;;44.17;17.60;;;;;;;2.26;100.00;99788.53;4875074;29;20031;-91
2023/03/09 09:49:27;;;;;;;;;;;;;;;;;;;;;
2023/03/09 09:54:56;;;;;;;47.70;18.42;;;;;;;2.31;100.00;99790.25;4883984;29;20041;-91
2023/03/09 09:57:40;;;;;;;44.92;16.98;;;;;;;2.38;100.00;99784.94;4896646;29;20040;-92
2023/03/09 10:03:37;;;;;;;47.67;17.52;;;;;;;2.42;100.00;99770.09;4895012;29;20076;-91
2023/03/09 10:06:16;;;;;;;44.70;17.92;;;;;;;2.60;100.00;99798.22;4896185;29;20037;-93
2023/03/09 10:08:51;;;;;;;46.38;19.02;;;;;;;2.39;100.00;99809.44;4896200;29;20029;-92
2023/03/09 10:11:24;;;;;;;47.22;18.33;;;;;;;2.45;100.00;99807.25;4879749;29;20037;-92
2023/03/09 10:13:56;;;;;;;44.35;18.48;;;;;;;2.50;100.00;99787.66;4892976;29;20080;-93
2023/03/09 10:16:26;;;;;;;;;;;;;;;2.86;100.00;99788.66;4883654;29;20028;-94
2023/03/09 10:18:58;;;;;;;48.63;20.50;;;;;;;2.88;100.00;99791.88;4879904;29;20296;-93
2023/03/09 10:25:38;;;;;;;43.15;19.05;;;;;;;2.87;100.00;99792.22;4860329;29;20098;-94
2023/03/09 10:32:04;;;;;;;52.70;21.38;;;;;;;2.65;100.00;99806.25;4819489;29;20071;-92
2023/03/09 10:34:40;;;;;;;49.08;19.08;;;;;;;2.68;100.00;99809.47;4875028;29;20115;-92
2023/03/09 10:37:23;;;;;;;49.00;20.58;;;;;;;3.05;100.00;99824.75;4898904;29;20033;-92
2023/03/09 10:39:49;;;;;;;49.35;20.40;;;;;;;2.61;100.00;99826.63;4886492;29;20028;-92
2023/03/09 10:43:12;;;;;;;45.78;19.25;;;;;;;2.84;100.00;99815.84;4882490;29;20500;-91
2023/03/09 10:46:01;;;;;;;;;;;;;;;;;;;;;
2023/03/09 10:48:27;;;;;;;52.15;19.17;;;;;;;2.67;100.00;99819.72;4905036;29;20147;-91
2023/03/09 10:51:37;;;;;;;46.33;19.73;;;;;;;2.67;100.00;99830.78;4892444;29;20064;-92
2023/03/09 10:54:24;;;;;;;55.25;20.40;;;;;;;2.72;100.00;99810.38;4904193;29;20043;-92
2023/03/09 10:56:52;;;;;;;48.45;19.75;;;;;;;2.87;100.00;99801.34;4905447;29;20181;-92
2023/03/09 10:59:28;;;;;;;52.72;22.20;;;;;;;2.83;100.00;99792.16;4894116;29;20029;-92
2023/03/09 11:01:57;;;;;;;52.35;21.67;;;;;;;2.88;100.00;99791.09;4881394;29;20054;-93
2023/03/09 11:04:23;;;;;;;55.78;21.17;;;;;;;2.71;100.00;99797.72;4894608;29;20037;-92
2023/03/09 11:06:56;;;;;;;50.67;21.50;;;;;;;2.70;100.00;99807.97;4895439;29;20088;-92
2023/03/09 11:09:28;;;;;;;51.42;19.83;;;;;;;2.59;100.00;99806.84;4878321;29;20032;-93
2023/03/09 11:12:15;;;;;;;51.55;22.23;;;;;;;2.82;100.00;99802.38;4892859;29;20040;-93
2023/03/09 11:14:45;;;;;;;49.33;20.55;;;;;;;2.77;100.00;99813.69;4894079;29;20036;-93
2023/03/09 11:17:40;;;;;;;52.90;21.98;;;;;;;2.83;100.00;99817.81;4880496;29;20032;-93
2023/03/09 11:20:12;;;;;;;54.63;21.08;;;;;;;3.18;100.00;99831.03;4879839;29;20048;-91
2023/03/09 11:22:40;;;;;;;53.88;22.38;;;;;;;2.96;100.00;99824.09;4895670;29;20028;-91
2023/03/09 11:25:17;;;;;;;55.10;22.00;;;;;;;3.73;100.00;99814.66;4899602;29;20036;-91
2023/03/09 11:27:49;;;;;;;51.22;20.35;;;;;;;3.60;100.00;99821.44;4881856;29;20116;-90
2023/03/09 11:30:16;;;;;;;52.42;21.20;;;;;;;3.17;100.00;99814.78;4896324;29;20032;-90
2023/03/09 11:32:42;;;;;;;52.90;21.67;;;;;;;3.15;100.00;99812.38;4894687;29;20426;-91
2023/03/09 11:35:14;;;;;;;49.67;21.80;;;;;;;3.45;100.00;99832.13;4895499;29;20042;-90
2023/03/09 11:37:58;;;;;;;52.85;21.73;;;;;;;3.71;100.00;99816.16;4897041;29;20117;-91
2023/03/09 11:40:31;;;;;;;55.35;20.52;;;;;;;3.64;100.00;99825.09;4894349;29;20039;-90
2023/03/09 11:43:07;;;;;;;48.15;22.40;;;;;;;3.75;100.00;99828.13;4880392;29;20032;-91
2023/03/09 11:45:35;;;;;;;54.42;23.17;;;;;;;3.28;100.00;99820.59;4875205;29;20035;-92
2023/03/09 11:48:11;;;;;;;56.15;21.80;;;;;;;3.10;100.00;99834.75;4879180;29;20455;-91
2023/03/09 11:50:45;;;;;;;58.70;22.05;;;;;;;3.17;100.00;99831.38;4881055;29;20079;-92
2023/03/09 11:53:19;;;;;;;41.50;18.63;;;;;;;2.92;100.00;99831.50;4879613;29;20493;-92
2023/03/09 11:55:49;;;;;;;50.03;19.25;;;;;;;3.05;100.00;99835.78;4893807;29;20029;-90
2023/03/09 11:58:19;;;;;;;49.33;21.13;;;;;;;3.07;100.00;99820.84;4890989;29;20040;-90
2023/03/09 12:00:51;;;;;;;48.92;21.73;;;;;;;2.99;100.00;99826.19;4892145;29;20093;-90